DADDY EDLW-EDLW

Flight info

Callsign DADDY
Flight time 0h 2m
Altitude
Route
Aircraft A225

Departure

Time 2026-05-07 18:16
Airport Dortmund Airport (EDLW)

Arrival

Time 2026-05-07 18:18
Airport Dortmund Airport (EDLW)
Time Latitude Longitude Altitude Speed Heading
2026-05-07 18:04 51.51624 7.61419 428 ft 0 kts 330°
2026-05-07 18:06 51.51657 7.61380 426 ft 7 kts 314°
2026-05-07 18:06 51.51668 7.61330 426 ft 4 kts 276°
2026-05-07 18:06 51.51660 7.61283 426 ft 5 kts 247°
2026-05-07 18:06 51.51622 7.61165 430 ft 33 kts 240°
2026-05-07 18:07 51.51425 7.60592 429 ft 39 kts 241°
2026-05-07 18:07 51.51400 7.60519 429 ft 0 kts 241°
2026-05-07 18:07 51.51408 7.60543 432 ft 8 kts 234°
2026-05-07 18:07 51.51427 7.60587 426 ft 0 kts 239°
2026-05-07 18:14 51.51404 7.60525 430 ft 31 kts 239°
2026-05-07 18:14 51.51377 7.60272 430 ft 16 kts 320°
2026-05-07 18:14 51.51454 7.60229 431 ft 11 kts 342°
2026-05-07 18:14 51.51482 7.60239 426 ft 2 kts 26°
2026-05-07 18:15 51.51494 7.60265 423 ft 5 kts 55°
2026-05-07 18:15 51.51501 7.60284 423 ft 0 kts 60°
2026-05-07 18:15 51.51568 7.60475 431 ft 61 kts 61°
2026-05-07 18:15 51.51952 7.61542 420 ft 158 kts 59°
2026-05-07 18:16 51.52560 7.63426 1057 ft 182 kts 92°
2026-05-07 18:16 51.51857 7.64939 1998 ft 208 kts 147°
2026-05-07 18:16 51.50380 7.65124 2398 ft 251 kts 239°
2026-05-07 18:16 51.49962 7.62011 2405 ft 290 kts 258°
2026-05-07 18:17 51.49417 7.58607 1035 ft 390 kts 256°
2026-05-07 18:17 51.48985 7.55146 5971 ft 250 kts 261°
2026-05-07 18:17 51.48917 7.52409 6588 ft 226 kts 295°
2026-05-07 18:17 51.49209 7.49864 871 ft 353 kts 275°
2026-05-07 18:18 51.49418 7.48275 300 ft 11 kts 226°
2026-05-07 18:18 51.49420 7.48272 300 ft 0 kts 227°